Time;durP1;ratioP1;P1;durP2;ratioP2;P2;SDS_P1;SDS_P2;PMS_P1;PMS_P2;Temp;Humidity;BMP_temperature;BMP_pressure;BME280_temperature;BME280_humidity;BME280_pressure;Samples;Min_cycle;Max_cycle;Signal;HPM_P1;HPM_P2
2022/05/24 00:04:54;;;;;;;6.20;2.40;;;23.40;54.60;;;;;;219259;1275;26945;-58
2022/05/24 00:09:58;;;;;;;3.70;2.30;;;23.50;54.40;;;;;;219328;1274;22544;-58
2022/05/24 00:15:24;;;;;;;7.10;2.70;;;23.40;54.30;;;;;;219308;1275;25320;-56
2022/05/24 00:20:32;;;;;;;8.50;3.10;;;23.40;54.10;;;;;;219217;1274;26518;-58
2022/05/24 00:25:39;;;;;;;6.80;2.30;;;23.40;54.10;;;;;;219257;1274;26615;-57
2022/05/24 00:30:44;;;;;;;6.60;2.20;;;23.40;54.70;;;;;;219306;1275;22576;-57
2022/05/24 00:35:49;;;;;;;10.10;2.90;;;23.40;54.20;;;;;;219305;1274;25316;-57
2022/05/24 00:41:08;;;;;;;5.90;2.20;;;23.40;54.00;;;;;;219296;1274;22564;-57
2022/05/24 00:46:16;;;;;;;4.00;2.00;;;23.40;54.00;;;;;;219247;1274;24310;-57
2022/05/24 00:51:30;;;;;;;15.50;2.70;;;23.40;54.10;;;;;;219362;1275;24549;-58
2022/05/24 00:56:50;;;;;;;4.90;2.10;;;23.40;54.00;;;;;;219290;1275;22586;-57
2022/05/24 01:01:54;;;;;;;5.20;2.20;;;23.30;53.90;;;;;;219309;1274;25232;-57
2022/05/24 01:06:58;;;;;;;6.00;2.20;;;23.30;54.10;;;;;;219252;1274;24118;-57
2022/05/24 01:12:11;;;;;;;4.50;2.10;;;23.30;54.00;;;;;;219355;1275;25366;-58
2022/05/24 01:17:14;;;;;;;10.20;2.80;;;23.30;54.00;;;;;;219218;1276;25400;-58
2022/05/24 01:22:37;;;;;;;4.30;2.00;;;23.30;54.00;;;;;;219229;1276;24252;-58
2022/05/24 01:27:41;;;;;;;4.60;2.30;;;23.30;53.60;;;;;;219163;1275;26742;-58
2022/05/24 01:38:11;;;;;;;5.00;2.20;;;23.30;53.40;;;;;;219225;1275;25398;-57
2022/05/24 01:43:21;;;;;;;5.50;2.60;;;23.30;53.50;;;;;;219251;1275;22830;-58
2022/05/24 01:48:53;;;;;;;5.40;2.30;;;23.30;53.30;;;;;;219167;1275;22628;-57
2022/05/24 01:54:01;;;;;;;6.40;2.50;;;23.20;53.20;;;;;;219363;1274;24781;-56
2022/05/24 01:59:10;;;;;;;8.70;3.10;;;23.30;53.40;;;;;;219246;1274;22576;-59
2022/05/24 02:04:15;;;;;;;11.40;3.40;;;23.30;53.30;;;;;;219332;1275;24101;-57
2022/05/24 02:09:19;;;;;;;5.80;2.40;;;23.20;53.60;;;;;;219346;1274;22557;-57
2022/05/24 02:14:27;;;;;;;10.40;3.50;;;23.20;53.10;;;;;;219252;1274;22650;-56
2022/05/24 02:19:34;;;;;;;9.80;3.00;;;23.20;53.00;;;;;;219311;1274;22588;-56
2022/05/24 02:24:38;;;;;;;5.90;2.50;;;23.20;53.00;;;;;;219268;1275;22685;-57
2022/05/24 02:29:59;;;;;;;3.90;2.10;;;23.30;53.50;;;;;;219163;1274;22606;-56
2022/05/24 02:35:12;;;;;;;7.20;2.70;;;23.20;53.30;;;;;;219156;1277;22765;-57
2022/05/24 02:45:40;;;;;;;8.30;2.60;;;23.20;53.30;;;;;;219080;1277;23431;-58
2022/05/24 02:50:44;;;;;;;9.40;2.90;;;23.20;53.80;;;;;;219181;1278;24287;-60
2022/05/24 02:55:49;;;;;;;6.40;2.40;;;23.20;53.50;;;;;;219226;1277;24527;-59
2022/05/24 03:00:53;;;;;;;6.00;2.40;;;23.20;53.50;;;;;;219059;1278;24830;-57
2022/05/24 03:05:57;;;;;;;3.40;1.90;;;23.20;53.20;;;;;;219074;1277;25546;-58
2022/05/24 03:11:01;;;;;;;9.80;2.60;;;23.20;53.40;;;;;;219102;1277;26529;-57
2022/05/24 03:16:13;;;;;;;3.90;1.90;;;23.10;53.30;;;;;;219219;1277;24235;-58
2022/05/24 03:21:16;;;;;;;4.10;2.00;;;23.20;53.90;;;;;;219154;1278;25634;-57
2022/05/24 03:26:20;;;;;;;4.80;2.10;;;23.10;53.70;;;;;;219079;1277;25642;-57
2022/05/24 03:31:32;;;;;;;4.10;2.30;;;23.10;53.20;;;;;;219241;1274;22580;-58
2022/05/24 03:36:37;;;;;;;3.80;2.10;;;23.10;53.20;;;;;;219298;1274;25414;-58
2022/05/24 03:41:44;;;;;;;3.60;1.90;;;23.10;53.90;;;;;;219326;1274;24400;-57
2022/05/24 03:46:47;;;;;;;6.00;2.20;;;23.10;53.60;;;;;;219319;1274;24804;-57
2022/05/24 03:51:51;;;;;;;3.60;1.90;;;23.10;53.70;;;;;;219282;1274;24149;-56
2022/05/24 04:02:17;;;;;;;4.00;1.90;;;23.10;53.20;;;;;;219279;1275;22622;-57
2022/05/24 04:07:21;;;;;;;3.80;1.80;;;23.10;53.60;;;;;;219247;1275;23321;-57
2022/05/24 04:12:24;;;;;;;2.70;1.80;;;23.10;53.30;;;;;;219294;1274;22540;-57
2022/05/24 04:17:28;;;;;;;3.40;1.70;;;23.10;54.20;;;;;;219274;1274;22625;-58
2022/05/24 04:22:32;;;;;;;3.30;1.80;;;23.10;53.30;;;;;;219175;1274;25331;-56
2022/05/24 04:27:36;;;;;;;4.60;2.20;;;23.10;53.70;;;;;;219264;1274;25927;-57
2022/05/24 04:32:40;;;;;;;3.40;2.00;;;23.10;53.60;;;;;;219429;1274;23186;-57
2022/05/24 04:37:44;;;;;;;3.50;2.00;;;23.00;53.90;;;;;;219373;1274;22538;-58
2022/05/24 04:42:49;;;;;;;6.30;2.30;;;23.10;53.20;;;;;;219219;1274;25475;-58
2022/05/24 04:47:53;;;;;;;5.10;2.10;;;23.10;53.60;;;;;;219185;1274;24383;-58
2022/05/24 04:52:57;;;;;;;3.50;2.00;;;23.10;53.50;;;;;;219280;1274;22549;-59
2022/05/24 04:58:00;;;;;;;2.80;1.40;;;23.10;53.50;;;;;;219185;1275;22641;-58
2022/05/24 05:03:10;;;;;;;3.90;1.80;;;23.10;53.50;;;;;;219235;1275;24250;-57
2022/05/24 05:08:19;;;;;;;6.50;2.30;;;23.10;53.60;;;;;;219256;1274;24424;-57
2022/05/24 05:13:23;;;;;;;4.90;1.80;;;23.10;53.50;;;;;;219296;1274;24293;-57
2022/05/24 05:18:27;;;;;;;4.50;1.90;;;23.10;53.20;;;;;;219194;1274;25610;-59
2022/05/24 05:23:31;;;;;;;4.20;1.90;;;23.10;53.20;;;;;;219374;1275;24766;-57
2022/05/24 05:28:35;;;;;;;6.90;1.60;;;23.10;53.70;;;;;;219243;1275;25437;-56
2022/05/24 05:33:39;;;;;;;3.80;1.90;;;23.10;54.00;;;;;;219396;1274;25284;-57
2022/05/24 05:38:46;;;;;;;7.40;2.70;;;23.10;53.60;;;;;;219233;1274;23079;-57
2022/05/24 05:43:50;;;;;;;4.50;2.30;;;23.10;53.80;;;;;;219277;1275;25441;-58
2022/05/24 05:48:54;;;;;;;3.70;2.00;;;23.10;54.20;;;;;;219299;1274;22915;-56
2022/05/24 05:53:58;;;;;;;10.70;2.70;;;23.20;54.30;;;;;;219200;1275;22622;-57
2022/05/24 05:59:02;;;;;;;8.70;2.20;;;23.20;54.30;;;;;;219209;1274;22618;-56
2022/05/24 06:04:06;;;;;;;7.70;2.20;;;23.20;54.50;;;;;;219300;1274;25551;-56
2022/05/24 06:09:10;;;;;;;5.40;2.00;;;23.20;54.50;;;;;;219395;1274;22594;-55
2022/05/24 06:14:14;;;;;;;10.60;3.30;;;23.20;54.70;;;;;;219307;1275;22724;-57
2022/05/24 06:19:40;;;;;;;10.80;2.80;;;23.20;54.80;;;;;;219093;1277;22635;-56
2022/05/24 06:24:46;;;;;;;7.70;2.80;;;23.30;54.40;;;;;;219315;1275;24048;-57
2022/05/24 06:29:51;;;;;;;8.40;2.90;;;23.10;53.70;;;;;;219275;1275;25638;-58
2022/05/24 06:34:56;;;;;;;10.90;2.90;;;23.10;52.90;;;;;;219253;1275;22555;-56
2022/05/24 06:40:00;;;;;;;6.60;2.70;;;23.20;53.00;;;;;;219356;1275;22709;-58
2022/05/24 06:45:05;;;;;;;17.60;3.80;;;23.30;53.40;;;;;;219293;1275;24076;-56
2022/05/24 06:50:11;;;;;;;11.70;3.20;;;23.30;53.00;;;;;;219278;1275;22617;-55
2022/05/24 06:55:17;;;;;;;18.50;4.40;;;23.30;52.80;;;;;;219164;1275;23076;-57
2022/05/24 07:05:45;;;;;;;10.50;3.70;;;23.30;51.70;;;;;;219202;1275;24279;-58
2022/05/24 07:10:54;;;;;;;7.60;3.10;;;23.30;52.50;;;;;;219199;1275;24073;-58
2022/05/24 07:15:59;;;;;;;12.20;3.10;;;23.30;52.30;;;;;;219198;1275;22547;-57
2022/05/24 07:21:04;;;;;;;14.60;3.40;;;23.30;52.10;;;;;;219054;1275;238336;-56
2022/05/24 07:26:17;;;;;;;13.90;3.50;;;23.30;52.20;;;;;;219234;1275;22596;-55
2022/05/24 07:31:44;;;;;;;8.10;3.10;;;23.40;52.20;;;;;;219118;1275;22666;-57
2022/05/24 07:36:47;;;;;;;8.40;3.00;;;23.40;52.40;;;;;;219166;1275;22649;-56
2022/05/24 07:47:17;;;;;;;9.10;3.20;;;23.40;52.50;;;;;;219161;1275;22564;-57
2022/05/24 07:52:21;;;;;;;4.90;2.50;;;23.50;52.20;;;;;;219312;1275;24489;-57
2022/05/24 07:57:26;;;;;;;7.60;2.90;;;23.50;51.60;;;;;;219238;1275;22729;-56
2022/05/24 08:02:31;;;;;;;5.20;2.20;;;23.50;52.80;;;;;;219212;1274;22638;-55
2022/05/24 08:07:35;;;;;;;6.80;2.40;;;23.60;52.80;;;;;;219242;1274;24227;-55
2022/05/24 08:12:39;;;;;;;8.00;2.50;;;23.60;52.80;;;;;;219398;1274;22761;-56
2022/05/24 08:17:43;;;;;;;9.00;3.20;;;23.60;52.50;;;;;;219268;1274;22576;-56
2022/05/24 08:22:47;;;;;;;11.90;3.20;;;23.70;52.40;;;;;;219151;1274;22630;-55
2022/05/24 08:27:51;;;;;;;12.50;3.60;;;23.70;52.30;;;;;;219218;1275;24319;-56
2022/05/24 08:32:56;;;;;;;7.20;3.10;;;23.70;52.90;;;;;;219255;1274;22549;-56
2022/05/24 08:38:02;;;;;;;3.20;1.90;;;23.70;52.90;;;;;;219106;1275;25573;-57
2022/05/24 08:43:22;;;;;;;6.70;2.90;;;23.80;52.30;;;;;;219264;1274;24239;-56
2022/05/24 08:48:38;;;;;;;6.90;2.90;;;23.70;52.20;;;;;;219170;1275;25529;-56
2022/05/24 08:53:51;;;;;;;6.10;2.60;;;23.80;52.50;;;;;;219207;1274;22551;-56
2022/05/24 08:59:30;;;;;;;8.20;2.80;;;23.80;52.30;;;;;;219064;1274;26835;-57
2022/05/24 09:04:35;;;;;;;7.70;2.30;;;23.80;52.60;;;;;;218913;1276;22651;-56
2022/05/24 09:09:57;;;;;;;10.00;2.60;;;23.90;52.30;;;;;;219099;1274;25448;-56
2022/05/24 09:21:29;;;;;;;8.50;2.50;;;23.90;52.60;;;;;;218965;1274;25270;-56
2022/05/24 09:27:01;;;;;;;4.60;2.20;;;24.00;54.00;;;;;;218960;1275;25533;-56
2022/05/24 09:32:09;;;;;;;11.20;2.70;;;24.10;54.90;;;;;;219053;1275;24157;-55
2022/05/24 09:37:22;;;;;;;7.10;2.40;;;24.10;56.60;;;;;;218944;1275;26770;-54
2022/05/24 09:42:39;;;;;;;5.00;2.60;;;24.10;55.20;;;;;;218970;1274;22826;-59
2022/05/24 09:47:43;;;;;;;14.20;4.00;;;24.10;56.50;;;;;;219053;1275;23922;-55
2022/05/24 09:53:02;;;;;;;8.40;3.00;;;24.10;56.40;;;;;;219113;1275;22553;-57
2022/05/24 09:58:22;;;;;;;21.20;4.30;;;24.10;56.30;;;;;;219207;1275;22835;-56
2022/05/24 10:03:38;;;;;;;22.70;4.50;;;24.10;56.90;;;;;;219360;1276;22570;-55
2022/05/24 10:08:59;;;;;;;13.60;4.10;;;24.10;61.00;;;;;;219172;1275;24215;-54
2022/05/24 10:14:17;;;;;;;13.80;3.30;;;24.10;57.30;;;;;;219160;1275;22668;-55
2022/05/24 10:19:38;;;;;;;6.10;2.40;;;24.10;55.90;;;;;;219263;1275;25282;-56
2022/05/24 10:24:44;;;;;;;7.90;2.70;;;24.10;55.60;;;;;;219286;1275;25265;-56
2022/05/24 10:30:01;;;;;;;7.80;2.30;;;24.10;55.60;;;;;;219176;1275;25495;-55
2022/05/24 10:40:54;;;;;;;8.00;2.80;;;24.10;55.30;;;;;;219119;1275;22555;-55
2022/05/24 10:46:05;;;;;;;9.00;2.40;;;24.20;55.20;;;;;;219187;1274;24043;-55
2022/05/24 10:51:23;;;;;;;5.40;2.90;;;24.20;55.90;;;;;;219424;1274;25972;-55
2022/05/24 10:56:34;;;;;;;7.50;2.30;;;24.20;55.60;;;;;;219375;1274;24245;-58
2022/05/24 11:01:44;;;;;;;5.20;2.40;;;24.20;55.90;;;;;;219207;1274;23197;-56
2022/05/24 11:07:06;;;;;;;5.70;2.40;;;24.20;55.80;;;;;;219233;1274;25562;-55
2022/05/24 11:12:16;;;;;;;10.20;3.40;;;24.20;55.30;;;;;;219299;1274;23998;-58
2022/05/24 11:17:20;;;;;;;6.30;2.60;;;24.30;55.70;;;;;;219202;1275;25563;-56
2022/05/24 11:22:29;;;;;;;6.70;2.90;;;24.20;54.80;;;;;;219270;1274;22714;-56
2022/05/24 11:27:40;;;;;;;4.60;2.40;;;24.30;54.90;;;;;;219152;1274;22566;-56
2022/05/24 11:32:50;;;;;;;9.40;3.70;;;24.30;54.90;;;;;;219211;1274;25472;-55
2022/05/24 11:38:08;;;;;;;4.00;2.40;;;24.30;54.60;;;;;;219234;1274;23944;-57
2022/05/24 11:43:35;;;;;;;7.50;3.10;;;24.40;55.00;;;;;;219246;1275;22551;-55
2022/05/24 11:48:44;;;;;;;14.30;3.70;;;24.40;54.60;;;;;;219176;1274;22591;-55
2022/05/24 11:53:48;;;;;;;13.80;4.20;;;24.50;54.60;;;;;;219142;1275;22780;-56
2022/05/24 11:59:04;;;;;;;12.30;3.70;;;24.50;54.80;;;;;;219109;1275;22562;-56
2022/05/24 12:09:58;;;;;;;6.30;2.80;;;24.50;54.30;;;;;;219137;1274;24781;-55
2022/05/24 12:15:34;;;;;;;5.40;2.70;;;24.50;54.30;;;;;;219225;1275;22541;-55
2022/05/24 12:20:40;;;;;;;5.90;2.70;;;24.50;54.20;;;;;;218997;1278;22534;-55
2022/05/24 12:26:07;;;;;;;6.40;2.50;;;24.50;54.20;;;;;;219184;1275;24137;-54
2022/05/24 12:31:17;;;;;;;5.90;2.60;;;24.50;54.10;;;;;;219261;1274;22658;-56
2022/05/24 12:36:39;;;;;;;10.30;2.80;;;24.50;55.00;;;;;;219412;1273;22583;-55
2022/05/24 12:42:12;;;;;;;6.00;2.40;;;24.50;54.90;;;;;;219472;1273;24161;-56
2022/05/24 12:47:20;;;;;;;7.00;2.60;;;24.50;54.40;;;;;;219509;1273;26771;-57
2022/05/24 12:52:31;;;;;;;5.40;2.60;;;24.60;54.60;;;;;;219082;1273;23089;-55
2022/05/24 12:57:39;;;;;;;9.90;2.90;;;24.60;54.30;;;;;;219249;1274;23206;-55
2022/05/24 13:02:44;;;;;;;6.60;2.40;;;24.60;54.20;;;;;;219251;1274;23945;-54
2022/05/24 13:07:53;;;;;;;6.90;2.70;;;24.60;54.50;;;;;;219171;1275;25522;-55
2022/05/24 13:12:57;;;;;;;3.90;2.10;;;24.60;54.20;;;;;;219165;1275;22563;-54
2022/05/24 13:18:17;;;;;;;8.60;2.90;;;24.60;54.20;;;;;;219138;1274;22539;-56
2022/05/24 13:23:31;;;;;;;9.50;3.40;;;24.60;54.30;;;;;;219227;1274;23991;-52
2022/05/24 13:28:57;;;;;;;6.40;2.60;;;24.60;54.40;;;;;;219226;1275;22948;-54
2022/05/24 13:34:15;;;;;;;11.40;3.40;;;24.70;54.40;;;;;;219146;1275;22567;-55
2022/05/24 13:39:46;;;;;;;11.80;3.10;;;24.60;54.50;;;;;;219159;1274;24233;-55
2022/05/24 13:45:06;;;;;;;11.30;2.80;;;24.60;54.40;;;;;;219043;1274;22719;-58
2022/05/24 13:50:40;;;;;;;5.40;2.40;;;24.60;54.40;;;;;;219153;1274;24396;-56
2022/05/24 13:56:17;;;;;;;10.70;2.50;;;24.60;54.30;;;;;;219139;1275;24067;-54
2022/05/24 14:01:36;;;;;;;5.60;2.50;;;24.60;54.60;;;;;;219095;1275;22566;-55
2022/05/24 14:06:48;;;;;;;5.50;2.30;;;24.70;54.40;;;;;;219731;1275;25385;-56
2022/05/24 14:11:55;;;;;;;7.00;2.40;;;24.70;54.20;;;;;;219319;1275;25330;-56
2022/05/24 14:17:11;;;;;;;5.40;2.50;;;24.60;54.20;;;;;;219242;1276;24290;-57
2022/05/24 14:22:16;;;;;;;3.50;2.00;;;24.70;54.20;;;;;;219154;1275;26703;-55
2022/05/24 14:27:19;;;;;;;5.20;2.60;;;24.70;54.50;;;;;;219245;1275;26557;-55
2022/05/24 14:32:24;;;;;;;11.40;3.20;;;24.60;54.40;;;;;;219306;1274;22541;-54
2022/05/24 14:37:29;;;;;;;4.80;2.40;;;24.60;54.70;;;;;;219216;1275;23287;-55
2022/05/24 14:42:34;;;;;;;6.80;2.60;;;24.70;54.10;;;;;;219308;1274;24313;-55
2022/05/24 14:47:46;;;;;;;7.60;3.00;;;24.70;54.00;;;;;;219081;1274;23964;-53
2022/05/24 14:52:50;;;;;;;5.50;2.50;;;24.70;54.30;;;;;;219192;1273;26653;-57
2022/05/24 14:57:54;;;;;;;6.80;2.10;;;24.70;54.10;;;;;;219117;1276;22551;-56
2022/05/24 15:02:58;;;;;;;11.30;2.80;;;24.70;54.20;;;;;;218803;1275;25290;-56
2022/05/24 15:18:55;;;;;;;7.40;2.70;;;24.90;55.60;;;;;;219027;1278;22598;-57
2022/05/24 15:24:05;;;;;;;9.10;2.70;;;24.90;55.00;;;;;;219244;1273;22560;-64
2022/05/24 15:29:09;;;;;;;11.20;2.80;;;24.90;55.30;;;;;;219160;1273;25245;-57
2022/05/24 15:34:14;;;;;;;6.50;2.80;;;24.90;55.60;;;;;;219009;1273;25389;-55
2022/05/24 15:39:17;;;;;;;11.60;3.00;;;24.90;55.90;;;;;;218924;1275;25447;-56
2022/05/24 15:44:21;;;;;;;9.60;2.90;;;25.00;55.50;;;;;;218797;1273;22543;-57
2022/05/24 15:49:25;;;;;;;10.50;2.70;;;25.00;55.30;;;;;;218471;1276;25414;-58
2022/05/24 15:54:35;;;;;;;9.40;3.00;;;24.90;56.40;;;;;;218552;1274;25272;-57
2022/05/24 15:59:41;;;;;;;9.90;2.80;;;24.90;56.00;;;;;;218876;1275;25279;-57
2022/05/24 16:10:11;;;;;;;10.60;2.90;;;24.80;56.70;;;;;;219145;1277;25667;-56
2022/05/24 16:15:18;;;;;;;11.80;3.00;;;24.80;57.40;;;;;;219151;1275;22704;-57
2022/05/24 16:20:22;;;;;;;8.50;2.40;;;24.60;59.60;;;;;;219039;1273;25781;-56
2022/05/24 16:25:26;;;;;;;10.50;3.50;;;24.50;60.60;;;;;;218961;1275;25414;-56
2022/05/24 16:30:30;;;;;;;12.70;3.20;;;24.50;61.80;;;;;;219015;1276;22632;-57
2022/05/24 16:35:35;;;;;;;9.70;3.90;;;24.50;62.10;;;;;;219142;1274;23021;-56
2022/05/24 16:40:40;;;;;;;10.20;2.90;;;24.50;61.80;;;;;;219121;1274;26004;-57
2022/05/24 16:45:44;;;;;;;15.30;3.90;;;24.50;62.80;;;;;;219113;1278;22709;-56
2022/05/24 16:50:50;;;;;;;12.40;3.50;;;24.40;63.00;;;;;;221530;1276;22627;-56
2022/05/24 17:01:23;;;;;;;16.50;2.80;;;24.20;63.20;;;;;;218960;1274;22544;-57
2022/05/24 17:06:32;;;;;;;8.80;2.90;;;24.10;63.20;;;;;;219468;1274;23047;-56
2022/05/24 17:12:00;;;;;;;8.80;2.40;;;24.00;63.50;;;;;;218920;1275;25616;-58
2022/05/24 17:17:06;;;;;;;6.60;2.30;;;24.00;63.90;;;;;;218857;1274;22566;-54
2022/05/24 17:22:11;;;;;;;13.80;2.70;;;23.90;64.00;;;;;;219180;1275;26635;-58
2022/05/24 17:27:15;;;;;;;12.50;4.00;;;23.90;64.80;;;;;;218985;1275;22637;-56
2022/05/24 17:32:22;;;;;;;9.60;2.80;;;23.90;64.00;;;;;;218960;1274;25276;-57
2022/05/24 17:37:26;;;;;;;12.00;3.50;;;23.90;63.90;;;;;;219315;1275;22590;-60
2022/05/24 17:42:30;;;;;;;7.60;2.60;;;23.80;64.20;;;;;;218981;1274;22555;-51
2022/05/24 17:47:35;;;;;;;6.90;2.40;;;23.70;64.20;;;;;;218938;1274;24248;-55
2022/05/24 17:52:39;;;;;;;4.00;2.40;;;23.50;64.90;;;;;;219288;1274;26694;-55
2022/05/24 17:57:43;;;;;;;15.30;4.20;;;23.60;65.50;;;;;;219137;1274;22586;-55
2022/05/24 18:02:47;;;;;;;5.50;2.40;;;23.50;65.50;;;;;;218978;1277;22748;-56
2022/05/24 18:07:51;;;;;;;5.90;2.50;;;23.60;65.60;;;;;;219039;1278;24434;-56
2022/05/24 18:13:00;;;;;;;4.70;2.20;;;23.40;66.70;;;;;;218953;1275;24244;-55
2022/05/24 18:18:04;;;;;;;9.20;3.00;;;23.30;66.50;;;;;;219023;1274;23987;-56
2022/05/24 18:23:12;;;;;;;4.30;2.10;;;23.20;67.00;;;;;;218906;1275;24245;-56
2022/05/24 18:33:43;;;;;;;6.00;2.80;;;23.20;67.40;;;;;;219507;1274;25324;-53
2022/05/24 18:39:11;;;;;;;12.30;3.80;;;23.50;66.30;;;;;;218953;1274;22635;-51
2022/05/24 18:44:45;;;;;;;9.60;3.40;;;23.60;66.30;;;;;;219166;1274;24290;-51
2022/05/24 18:50:18;;;;;;;13.90;4.30;;;23.70;65.50;;;;;;219014;1275;23632;-52
2022/05/24 18:55:45;;;;;;;23.30;5.30;;;23.90;65.90;;;;;;219135;1274;23181;-54
2022/05/24 19:01:11;;;;;;;12.60;3.90;;;23.90;66.70;;;;;;219127;1274;22780;-53
2022/05/24 19:06:29;;;;;;;13.60;4.00;;;24.00;65.70;;;;;;219151;1274;26443;-50
2022/05/24 19:11:52;;;;;;;12.60;3.90;;;24.00;65.40;;;;;;219179;1275;25587;-51
2022/05/24 19:17:23;;;;;;;17.80;4.00;;;24.10;65.00;;;;;;219436;1274;24397;-53
2022/05/24 19:22:33;;;;;;;19.70;4.40;;;24.20;65.50;;;;;;217387;1274;2769474;-52
2022/05/24 19:28:04;;;;;;;19.10;3.30;;;24.20;65.40;;;;;;219066;1275;22561;-49
2022/05/24 19:33:34;;;;;;;8.00;2.90;;;24.30;64.90;;;;;;219062;1278;22638;-53
2022/05/24 19:44:39;;;;;;;20.80;4.60;;;24.30;63.70;;;;;;219121;1278;25472;-51
2022/05/24 19:50:03;;;;;;;16.10;5.00;;;24.30;63.80;;;;;;218580;1278;24041;-52
2022/05/24 19:55:29;;;;;;;14.80;3.80;;;24.30;65.90;;;;;;219039;1278;23923;-60
2022/05/24 20:00:40;;;;;;;16.40;3.90;;;24.20;66.90;;;;;;218914;1278;22849;-63
2022/05/24 20:05:55;;;;;;;10.30;3.60;;;24.20;63.70;;;;;;218992;1278;22562;-62
2022/05/24 20:11:23;;;;;;;8.70;4.10;;;24.10;63.60;;;;;;218980;1277;22728;-60
2022/05/24 20:16:32;;;;;;;10.30;3.30;;;24.10;63.80;;;;;;219053;1277;22657;-58
2022/05/24 20:22:02;;;;;;;8.60;3.20;;;24.10;63.70;;;;;;218915;1277;24258;-62
2022/05/24 20:27:47;;;;;;;9.90;3.50;;;24.00;63.60;;;;;;218966;1278;23916;-55
2022/05/24 20:32:51;;;;;;;10.50;3.50;;;24.00;63.80;;;;;;219178;1275;22532;-59
2022/05/24 20:37:55;;;;;;;8.40;3.60;;;23.90;63.20;;;;;;219376;1273;24254;-59
2022/05/24 20:43:01;;;;;;;7.50;3.20;;;23.90;63.20;;;;;;219075;1274;22890;-56
2022/05/24 20:48:05;;;;;;;8.30;3.30;;;23.90;63.40;;;;;;219248;1275;23048;-59
2022/05/24 20:53:11;;;;;;;8.10;3.60;;;23.90;62.90;;;;;;218983;1278;22588;-58
2022/05/24 20:58:26;;;;;;;6.40;2.80;;;23.90;62.90;;;;;;219078;1274;22609;-58
2022/05/24 21:03:34;;;;;;;10.80;3.50;;;23.90;62.60;;;;;;219089;1274;25469;-58
2022/05/24 21:08:42;;;;;;;5.40;3.10;;;23.90;62.80;;;;;;219219;1275;24134;-58
2022/05/24 21:13:54;;;;;;;8.30;3.00;;;23.90;62.80;;;;;;219186;1274;24810;-57
2022/05/24 21:18:58;;;;;;;7.30;3.40;;;23.80;62.40;;;;;;219061;1275;24699;-60
2022/05/24 21:24:08;;;;;;;6.70;2.90;;;23.90;62.30;;;;;;219150;1274;26702;-61
2022/05/24 21:29:20;;;;;;;5.60;3.00;;;23.90;62.50;;;;;;218968;1275;22845;-60
2022/05/24 21:34:25;;;;;;;6.10;2.80;;;23.80;62.20;;;;;;218993;1275;22544;-58
2022/05/24 21:39:31;;;;;;;5.60;2.60;;;23.80;62.10;;;;;;219097;1274;24436;-59
2022/05/24 21:44:40;;;;;;;6.80;3.70;;;23.80;62.20;;;;;;219415;1275;23840;-57
2022/05/24 21:49:48;;;;;;;5.50;3.00;;;23.80;62.50;;;;;;220078;1274;23985;-58
2022/05/24 21:55:17;;;;;;;6.10;3.00;;;23.80;62.40;;;;;;219616;1275;22633;-58
2022/05/24 22:01:08;;;;;;;9.30;4.00;;;23.80;62.00;;;;;;220145;1275;22709;-60
2022/05/24 22:06:20;;;;;;;6.70;3.50;;;23.80;61.90;;;;;;220455;1274;22573;-59
2022/05/24 22:11:35;;;;;;;6.70;3.00;;;23.80;61.90;;;;;;218965;1275;22563;-59
2022/05/24 22:16:44;;;;;;;7.40;3.10;;;23.80;61.80;;;;;;219634;1274;25338;-60
2022/05/24 22:22:12;;;;;;;11.00;4.30;;;23.80;61.50;;;;;;219288;1278;25339;-62
2022/05/24 22:27:17;;;;;;;4.60;2.90;;;23.70;61.80;;;;;;219058;1274;25424;-54
2022/05/24 22:32:28;;;;;;;7.70;3.60;;;23.80;61.70;;;;;;218858;1275;22671;-55
2022/05/24 22:37:36;;;;;;;9.10;3.00;;;23.80;61.50;;;;;;219167;1273;25283;-52
2022/05/24 22:42:46;;;;;;;11.30;4.20;;;23.80;61.10;;;;;;219286;1271;22726;-51
2022/05/24 22:48:01;;;;;;;7.60;2.90;;;23.80;62.90;;;;;;219343;1273;22580;-51
2022/05/24 22:53:11;;;;;;;7.90;3.50;;;23.90;61.70;;;;;;219301;1273;22576;-52
2022/05/24 22:58:18;;;;;;;9.80;3.60;;;23.90;61.20;;;;;;219250;1273;23232;-53
2022/05/24 23:03:23;;;;;;;15.30;3.90;;;23.90;62.40;;;;;;219009;1273;24365;-54
2022/05/24 23:08:27;;;;;;;9.70;2.90;;;23.90;63.80;;;;;;219065;1275;25534;-54
2022/05/24 23:13:31;;;;;;;13.40;3.60;;;24.00;64.30;;;;;;218932;1274;26202;-51
2022/05/24 23:18:35;;;;;;;18.80;5.70;;;24.00;63.30;;;;;;219132;1274;22775;-51
2022/05/24 23:23:38;;;;;;;7.90;3.10;;;24.00;63.00;;;;;;218946;1274;22563;-52
2022/05/24 23:28:42;;;;;;;12.70;3.40;;;24.00;62.90;;;;;;218960;1275;24002;-51
2022/05/24 23:33:58;;;;;;;11.60;3.40;;;24.00;62.90;;;;;;219178;1274;25369;-52
2022/05/24 23:39:04;;;;;;;6.40;2.70;;;24.00;63.10;;;;;;218955;1274;22575;-53
2022/05/24 23:44:09;;;;;;;6.20;2.50;;;24.00;62.60;;;;;;219134;1275;25500;-52
2022/05/24 23:49:13;;;;;;;9.40;3.10;;;24.00;62.90;;;;;;218973;1275;22543;-54
2022/05/24 23:54:17;;;;;;;9.40;3.20;;;24.00;62.40;;;;;;219002;1275;24220;-55
2022/05/24 23:59:21;;;;;;;8.30;3.20;;;24.10;62.40;;;;;;219078;1276;22715;-54
